createdAt,value
2019-01-23T00:00:52.936Z,100068.41
2019-01-23T00:03:20.175Z,100060.56
2019-01-23T00:05:47.635Z,100057.20
2019-01-23T00:08:14.892Z,100054.97
2019-01-23T00:10:42.137Z,100056.27
2019-01-23T00:13:09.419Z,100052.70
2019-01-23T00:15:36.662Z,100052.12
2019-01-23T00:18:04.020Z,100050.42
2019-01-23T00:20:31.243Z,100051.39
2019-01-23T00:22:58.484Z,100051.24
2019-01-23T00:25:25.805Z,100046.37
2019-01-23T00:27:53.034Z,100045.89
2019-01-23T00:30:20.397Z,100051.87
2019-01-23T00:32:47.666Z,100052.72
2019-01-23T00:35:14.912Z,100049.27
2019-01-23T00:37:42.170Z,100042.37
2019-01-23T00:40:09.690Z,100047.70
2019-01-23T00:42:36.979Z,100046.80
2019-01-23T00:45:05.789Z,100044.83
2019-01-23T00:47:33.090Z,100045.81
2019-01-23T00:50:00.357Z,100044.68
2019-01-23T00:52:27.731Z,100045.83
2019-01-23T00:54:55.008Z,100040.59
2019-01-23T00:57:22.276Z,100041.64
2019-01-23T00:59:49.526Z,100033.55
2019-01-23T01:02:16.785Z,100031.69
2019-01-23T01:04:44.112Z,100035.36
2019-01-23T01:07:11.674Z,100028.05
2019-01-23T01:09:39.184Z,100031.06
2019-01-23T01:12:06.466Z,100032.20
2019-01-23T01:14:33.771Z,100027.47
2019-01-23T01:17:00.996Z,100029.60
2019-01-23T01:19:28.545Z,100030.48
2019-01-23T01:21:55.802Z,100034.13
2019-01-23T01:24:23.223Z,100035.02
2019-01-23T01:26:50.450Z,100045.23
2019-01-23T01:29:17.740Z,100041.85
2019-01-23T01:31:44.981Z,100047.14
2019-01-23T01:34:12.210Z,100039.16
2019-01-23T01:36:39.583Z,100039.26
2019-01-23T01:39:08.043Z,100041.55
2019-01-23T01:41:35.630Z,100036.83
2019-01-23T01:44:02.966Z,100037.66
2019-01-23T01:46:30.290Z,100033.83
2019-01-23T01:48:57.556Z,100034.33
2019-01-23T01:51:24.830Z,100035.89
2019-01-23T01:53:52.374Z,100036.77
2019-01-23T01:56:19.612Z,100048.51
2019-01-23T01:58:46.866Z,100043.09
2019-01-23T02:01:14.117Z,100045.17
2019-01-23T02:03:41.365Z,100045.59
2019-01-23T02:06:08.726Z,100041.86
2019-01-23T02:08:35.953Z,100040.09
2019-01-23T02:11:03.444Z,100046.73
2019-01-23T02:13:30.706Z,100046.42
2019-01-23T02:15:57.945Z,100048.36
2019-01-23T02:18:25.237Z,100046.17
2019-01-23T02:20:52.561Z,100044.97
2019-01-23T02:23:19.782Z,100044.45
2019-01-23T02:25:47.033Z,100035.31
2019-01-23T02:28:14.273Z,100035.38
2019-01-23T02:30:41.571Z,100031.48
2019-01-23T02:33:08.818Z,100022.09
2019-01-23T02:35:36.074Z,100028.11
2019-01-23T02:38:03.465Z,100018.88
2019-01-23T02:40:30.697Z,100023.23
2019-01-23T02:42:57.945Z,100019.50
2019-01-23T02:45:25.288Z,100017.48
2019-01-23T02:47:52.515Z,100011.82
2019-01-23T02:50:19.827Z,100018.88
2019-01-23T02:52:47.066Z,100016.28
2019-01-23T02:55:14.280Z,100013.69
2019-01-23T02:57:41.525Z,100020.33
2019-01-23T03:00:11.744Z,100014.31
2019-01-23T03:02:39.054Z,100008.40
2019-01-23T03:05:08.894Z,100001.09
2019-01-23T03:07:36.144Z,100002.95
2019-01-23T03:10:05.491Z,100004.55
2019-01-23T03:12:32.763Z,100004.62
2019-01-23T03:15:00.034Z,100003.52
2019-01-23T03:17:27.266Z,100008.72
2019-01-23T03:19:54.639Z,100001.76
2019-01-23T03:22:21.889Z,100001.66
2019-01-23T03:24:49.130Z,99999.38
2019-01-23T03:27:16.394Z,100001.66
2019-01-23T03:29:43.626Z,99996.78
2019-01-23T03:32:10.846Z,100001.31
2019-01-23T03:34:38.103Z,99994.97
2019-01-23T03:37:05.346Z,99997.25
2019-01-23T03:39:32.589Z,100001.08
2019-01-23T03:41:59.933Z,100006.37
2019-01-23T03:44:27.185Z,100004.72
2019-01-23T03:46:54.440Z,100008.45
2019-01-23T03:49:21.681Z,100010.38
2019-01-23T03:51:48.967Z,100014.11
2019-01-23T03:54:16.237Z,100014.11
2019-01-23T03:56:44.179Z,100013.48
2019-01-23T03:59:11.390Z,100025.94
2019-01-23T04:01:38.651Z,100029.36
2019-01-23T04:04:05.993Z,100031.62
2019-01-23T04:06:33.255Z,100038.48
2019-01-23T04:09:00.638Z,100034.12
2019-01-23T04:11:27.847Z,100040.02
2019-01-23T04:13:55.101Z,100039.30
2019-01-23T04:16:22.397Z,100045.16
2019-01-23T04:18:49.650Z,100046.98
2019-01-23T04:21:16.861Z,100050.25
2019-01-23T04:23:44.140Z,100054.61
2019-01-23T04:26:11.345Z,100056.89
2019-01-23T04:28:38.562Z,100050.98
2019-01-23T04:31:05.829Z,100053.31
2019-01-23T04:33:33.128Z,100053.98
2019-01-23T04:36:00.345Z,100053.39
2019-01-23T04:38:27.575Z,100053.31
2019-01-23T04:40:54.791Z,100054.70
2019-01-23T04:43:22.050Z,100059.80
2019-01-23T04:45:49.265Z,100057.30
2019-01-23T04:48:16.561Z,100055.41
2019-01-23T04:51:15.175Z,100059.22
2019-01-23T04:53:44.507Z,100062.08
2019-01-23T04:56:11.706Z,100062.59
2019-01-23T04:58:38.931Z,100062.48
2019-01-23T05:01:06.170Z,100067.36
2019-01-23T05:03:33.396Z,100064.36
2019-01-23T05:06:01.423Z,100065.33
2019-01-23T05:08:28.698Z,100062.80
2019-01-23T05:10:55.923Z,100063.31
2019-01-23T05:13:23.135Z,100063.74
2019-01-23T05:15:50.394Z,100065.13
2019-01-23T05:18:17.607Z,100062.47
2019-01-23T05:20:44.867Z,100068.08
2019-01-23T05:23:12.068Z,100062.01
2019-01-23T05:25:39.281Z,100064.94
2019-01-23T05:28:06.527Z,100066.09
2019-01-23T05:30:33.807Z,100066.05
2019-01-23T05:33:01.019Z,100063.69
2019-01-23T05:35:28.270Z,100061.59
2019-01-23T05:37:55.447Z,100065.95
2019-01-23T05:40:22.700Z,100062.06
2019-01-23T05:42:49.925Z,100072.45
2019-01-23T05:45:17.144Z,100067.91
2019-01-23T05:47:44.369Z,100073.17
2019-01-23T05:50:14.072Z,100077.42
2019-01-23T05:52:41.390Z,100077.27
2019-01-23T05:55:09.668Z,100080.17
2019-01-23T05:57:36.897Z,100077.99
2019-01-23T06:00:05.870Z,100079.93
2019-01-23T06:02:33.108Z,100088.13
2019-01-23T06:05:00.307Z,100088.94
2019-01-23T06:07:27.540Z,100084.42
2019-01-23T06:09:54.757Z,100088.67
2019-01-23T06:12:22.060Z,100091.84
2019-01-23T06:14:49.303Z,100095.88
2019-01-23T06:17:16.527Z,100094.44
2019-01-23T06:19:43.743Z,100092.42
2019-01-23T06:22:11.009Z,100104.09
2019-01-23T06:24:38.232Z,100100.61
2019-01-23T06:27:05.427Z,100104.09
2019-01-23T06:29:32.694Z,100108.86
2019-01-23T06:31:59.906Z,100116.55
2019-01-23T06:34:27.104Z,100112.90
2019-01-23T06:36:54.827Z,100124.66
2019-01-23T06:39:22.024Z,100128.33
2019-01-23T06:41:49.227Z,100130.14
2019-01-23T06:44:16.467Z,100134.67
2019-01-23T06:46:43.764Z,100138.56
2019-01-23T06:49:10.996Z,100146.51
2019-01-23T06:51:38.193Z,100144.19
2019-01-23T06:54:05.423Z,100146.47
2019-01-23T06:56:32.828Z,100142.17
2019-01-23T06:59:00.054Z,100147.59
2019-01-23T07:01:27.271Z,100135.33
2019-01-23T07:03:54.468Z,100144.63
2019-01-23T07:06:21.687Z,100143.13
2019-01-23T07:08:48.972Z,100148.89
2019-01-23T07:11:16.217Z,100146.88
2019-01-23T07:13:43.427Z,100149.44
2019-01-23T07:16:10.729Z,100160.16
2019-01-23T07:19:04.472Z,100163.41
2019-01-23T07:21:31.833Z,100168.12
2019-01-23T07:23:59.141Z,100169.61
2019-01-23T07:26:26.368Z,100160.06
2019-01-23T07:28:53.623Z,100160.73
2019-01-23T07:31:20.847Z,100161.64
2019-01-23T07:33:48.113Z,100163.48
2019-01-23T07:36:15.350Z,100161.59
2019-01-23T07:38:42.558Z,100154.88
2019-01-23T07:41:09.807Z,100159.22
2019-01-23T07:43:37.124Z,100170.64
2019-01-23T07:46:04.586Z,100167.12
2019-01-23T07:48:31.817Z,100166.66
2019-01-23T07:50:59.016Z,100174.26
2019-01-23T07:53:26.272Z,100168.12
2019-01-23T07:55:53.484Z,100174.26
2019-01-23T07:58:20.701Z,100179.14
2019-01-23T08:00:47.926Z,100189.53
2019-01-23T08:03:15.143Z,100188.41
2019-01-23T08:05:42.366Z,100193.53
2019-01-23T08:08:09.623Z,100195.30
2019-01-23T08:10:36.795Z,100194.89
2019-01-23T08:13:04.277Z,100199.48
2019-01-23T08:15:34.073Z,100204.91
2019-01-23T08:18:02.355Z,100203.72
2019-01-23T08:20:29.839Z,100211.72
2019-01-23T08:22:57.091Z,100206.00
2019-01-23T08:25:24.912Z,100215.88
2019-01-23T08:27:52.292Z,100221.28
2019-01-23T08:30:20.211Z,100224.38
2019-01-23T08:32:47.483Z,100221.48
2019-01-23T08:35:15.037Z,100220.76
2019-01-23T08:37:42.260Z,100227.20
2019-01-23T08:40:11.448Z,100230.35
2019-01-23T08:42:38.783Z,100231.73
2019-01-23T08:45:07.184Z,100232.59
2019-01-23T08:47:34.514Z,100232.94
2019-01-23T08:50:01.731Z,100234.09
2019-01-23T08:52:29.738Z,100238.30
2019-01-23T08:54:56.975Z,100245.56
2019-01-23T08:57:24.184Z,100249.49
2019-01-23T08:59:51.443Z,100253.38
2019-01-23T09:02:18.662Z,100257.50
2019-01-23T09:04:46.046Z,100254.00
2019-01-23T09:07:13.330Z,100256.12
2019-01-23T09:09:40.544Z,100261.75
2019-01-23T09:12:08.686Z,100269.61
2019-01-23T09:14:36.207Z,100259.38
2019-01-23T09:17:03.617Z,100269.94
2019-01-23T09:19:30.822Z,100274.01
2019-01-23T09:21:58.295Z,100273.92
2019-01-23T09:24:25.522Z,100274.91
2019-01-23T09:26:52.717Z,100270.11
2019-01-23T09:29:20.045Z,100277.37
2019-01-23T09:32:38.141Z,100276.79
2019-01-23T09:35:43.820Z,100281.48
2019-01-23T09:39:03.818Z,100280.95
2019-01-23T09:42:07.154Z,100287.55
2019-01-23T09:45:09.367Z,100284.06
2019-01-23T09:47:53.602Z,100282.64
2019-01-23T09:51:07.944Z,100281.35
2019-01-23T09:53:43.715Z,100292.02
2019-01-23T09:56:13.072Z,100291.09
2019-01-23T09:58:40.323Z,100296.76
2019-01-23T10:01:07.543Z,100292.05
2019-01-23T10:03:34.772Z,100297.19
2019-01-23T10:06:02.017Z,100297.20
2019-01-23T10:08:29.323Z,100299.34
2019-01-23T10:10:56.601Z,100306.16
2019-01-23T10:13:23.799Z,100298.58
2019-01-23T10:16:01.077Z,100305.55
2019-01-23T10:18:28.300Z,100309.41
2019-01-23T10:20:55.644Z,100317.17
2019-01-23T10:23:22.915Z,100323.66
2019-01-23T10:25:50.147Z,100327.14
2019-01-23T10:28:17.373Z,100327.50
2019-01-23T10:30:44.618Z,100328.34
2019-01-23T10:33:11.827Z,100328.94
2019-01-23T10:35:39.966Z,100335.13
2019-01-23T10:38:07.228Z,100329.23
2019-01-23T10:40:37.361Z,100334.21
2019-01-23T10:43:04.982Z,100326.10
2019-01-23T10:45:32.240Z,100331.64
2019-01-23T10:47:59.500Z,100331.63
2019-01-23T10:50:27.071Z,100332.94
2019-01-23T10:52:54.320Z,100329.17
2019-01-23T10:55:21.580Z,100333.66
2019-01-23T10:57:48.911Z,100340.55
2019-01-23T11:00:17.318Z,100342.05
2019-01-23T11:02:44.564Z,100343.84
2019-01-23T11:05:14.684Z,100344.15
2019-01-23T11:07:41.951Z,100348.41
2019-01-23T11:10:12.287Z,100343.57
2019-01-23T11:12:39.701Z,100344.20
2019-01-23T11:15:07.096Z,100344.82
2019-01-23T11:17:34.325Z,100349.80
2019-01-23T11:20:01.648Z,100348.44
2019-01-23T11:22:29.030Z,100347.96
2019-01-23T11:24:56.330Z,100352.05
2019-01-23T11:27:23.578Z,100341.69
2019-01-23T11:29:50.786Z,100340.69
2019-01-23T11:32:17.995Z,100341.00
2019-01-23T11:34:45.262Z,100339.60
2019-01-23T11:37:12.457Z,100338.30
2019-01-23T11:39:39.802Z,100341.98
2019-01-23T11:42:07.056Z,100340.47
2019-01-23T11:44:34.258Z,100341.28
2019-01-23T11:47:01.603Z,100348.92
2019-01-23T11:49:28.859Z,100346.35
2019-01-23T11:51:56.128Z,100347.25
2019-01-23T11:54:23.688Z,100349.56
2019-01-23T11:56:51.320Z,100348.45
2019-01-23T11:59:18.505Z,100346.97
2019-01-23T12:01:46.136Z,100354.81
2019-01-23T12:04:13.412Z,100357.98
2019-01-23T12:06:40.615Z,100356.55
2019-01-23T12:09:09.114Z,100360.75
2019-01-23T12:11:36.480Z,100355.48
2019-01-23T12:14:03.999Z,100357.69
2019-01-23T12:16:31.298Z,100353.63
2019-01-23T12:18:58.530Z,100353.22
2019-01-23T12:21:25.729Z,100352.84
2019-01-23T12:23:58.236Z,100363.47
2019-01-23T12:26:22.091Z,100356.41
2019-01-23T12:28:49.382Z,100363.67
2019-01-23T12:31:16.601Z,100365.45
2019-01-23T12:33:43.832Z,100362.39
2019-01-23T12:36:11.114Z,100365.23
2019-01-23T12:38:40.062Z,100360.79
2019-01-23T12:41:07.268Z,100357.98
2019-01-23T12:43:34.608Z,100358.20
2019-01-23T12:46:01.890Z,100366.47
2019-01-23T12:48:29.135Z,100368.87
2019-01-23T12:50:56.485Z,100367.36
2019-01-23T12:53:23.709Z,100367.97
2019-01-23T12:55:50.896Z,100365.39
2019-01-23T12:58:18.115Z,100365.65
2019-01-23T13:00:45.431Z,100369.30
2019-01-23T13:03:12.705Z,100369.13
2019-01-23T13:05:39.929Z,100360.49
2019-01-23T13:08:07.387Z,100365.69
2019-01-23T13:10:34.869Z,100362.49
2019-01-23T13:13:02.124Z,100363.90
2019-01-23T13:15:29.338Z,100371.92
2019-01-23T13:17:57.029Z,100368.66
2019-01-23T13:20:25.090Z,100373.34
2019-01-23T13:22:52.695Z,100374.70
2019-01-23T13:25:22.091Z,100381.41
2019-01-23T13:27:50.284Z,100385.48
2019-01-23T13:30:19.400Z,100384.50
2019-01-23T13:32:46.641Z,100388.78
2019-01-23T13:35:15.508Z,100389.42
2019-01-23T13:37:43.085Z,100387.41
2019-01-23T13:40:17.849Z,100391.86
2019-01-23T13:42:45.220Z,100394.16
2019-01-23T13:45:13.021Z,100396.81
2019-01-23T13:47:40.266Z,100391.17
2019-01-23T13:50:08.343Z,100402.92
2019-01-23T13:52:35.622Z,100403.11
2019-01-23T13:55:04.153Z,100404.13
2019-01-23T13:57:31.400Z,100408.73
2019-01-23T13:59:58.621Z,100404.94
2019-01-23T14:02:25.811Z,100409.33
2019-01-23T14:04:53.028Z,100412.31
2019-01-23T14:07:20.245Z,100420.86
2019-01-23T14:09:47.499Z,100417.08
2019-01-23T14:12:14.710Z,100418.21
2019-01-23T14:14:42.023Z,100425.80
2019-01-23T14:17:09.273Z,100427.34
2019-01-23T14:19:36.511Z,100431.69
2019-01-23T14:22:04.010Z,100432.41
2019-01-23T14:24:31.282Z,100431.14
2019-01-23T14:26:58.512Z,100433.56
2019-01-23T14:29:25.753Z,100428.22
2019-01-23T14:31:53.404Z,100438.42
2019-01-23T14:34:20.809Z,100428.16
2019-01-23T14:36:48.007Z,100433.44
2019-01-23T14:39:15.250Z,100435.33
2019-01-23T14:41:42.527Z,100437.45
2019-01-23T14:44:09.805Z,100445.52
2019-01-23T14:46:37.144Z,100444.91
2019-01-23T14:49:04.511Z,100450.41
2019-01-23T14:51:31.849Z,100445.91
2019-01-23T14:53:59.044Z,100452.59
2019-01-23T14:56:26.264Z,100454.68
2019-01-23T14:58:53.492Z,100464.91
2019-01-23T15:01:20.722Z,100466.97
2019-01-23T15:03:48.007Z,100465.09
2019-01-23T15:06:15.333Z,100461.25
2019-01-23T15:08:42.554Z,100466.75
2019-01-23T15:11:09.827Z,100470.52
2019-01-23T15:13:37.063Z,100473.32
2019-01-23T15:16:04.437Z,100475.91
2019-01-23T15:18:31.646Z,100481.78
2019-01-23T15:21:00.991Z,100482.59
2019-01-23T15:23:28.273Z,100481.08
2019-01-23T15:25:55.857Z,100483.48
2019-01-23T15:28:23.177Z,100488.36
2019-01-23T15:30:50.433Z,100498.02
2019-01-23T15:33:17.688Z,100500.81
2019-01-23T15:35:44.908Z,100512.70
2019-01-23T15:38:12.147Z,100516.91
2019-01-23T15:40:39.461Z,100515.32
2019-01-23T15:43:06.682Z,100510.27
2019-01-23T15:45:34.054Z,100513.53
2019-01-23T15:48:01.292Z,100521.30
2019-01-23T15:50:28.560Z,100520.12
2019-01-23T15:52:55.843Z,100525.90
2019-01-23T15:55:24.145Z,100524.03
2019-01-23T15:57:51.392Z,100521.84
2019-01-23T16:00:24.121Z,100526.33
2019-01-23T16:02:51.460Z,100536.83
2019-01-23T16:05:18.875Z,100541.77
2019-01-23T16:07:46.185Z,100541.56
2019-01-23T16:10:16.206Z,100548.73
2019-01-23T16:12:43.555Z,100549.02
2019-01-23T16:15:11.151Z,100555.92
2019-01-23T16:17:38.480Z,100560.19
2019-01-23T16:20:06.328Z,100561.69
2019-01-23T16:22:34.069Z,100562.08
2019-01-23T16:25:01.882Z,100566.27
2019-01-23T16:27:29.520Z,100566.37
2019-01-23T16:29:56.817Z,100564.94
2019-01-23T16:32:31.320Z,100568.45
2019-01-23T16:34:54.136Z,100571.81
2019-01-23T16:37:21.383Z,100567.88
2019-01-23T16:39:48.587Z,100576.64
2019-01-23T16:42:15.926Z,100579.05
2019-01-23T16:44:43.139Z,100585.91
2019-01-23T16:47:10.380Z,100580.99
2019-01-23T16:49:37.648Z,100581.77
2019-01-23T16:52:04.852Z,100588.53
2019-01-23T16:54:32.121Z,100595.41
2019-01-23T16:56:59.374Z,100603.83
2019-01-23T16:59:26.912Z,100612.89
2019-01-23T17:01:54.432Z,100609.13
2019-01-23T17:04:21.654Z,100605.88
2019-01-23T17:06:48.855Z,100608.44
2019-01-23T17:09:16.094Z,100606.37
2019-01-23T17:11:43.308Z,100615.58
2019-01-23T17:14:10.554Z,100613.36
2019-01-23T17:16:38.116Z,100624.05
2019-01-23T17:19:05.316Z,100620.56
2019-01-23T17:21:32.570Z,100632.18
2019-01-23T17:23:59.766Z,100632.87
2019-01-23T17:26:27.184Z,100636.27
2019-01-23T17:28:54.384Z,100633.47
2019-01-23T17:31:21.968Z,100636.63
2019-01-23T17:33:49.312Z,100638.48
2019-01-23T17:36:16.516Z,100645.48
2019-01-23T17:38:43.976Z,100643.91
2019-01-23T17:41:11.357Z,100647.18
2019-01-23T17:43:38.852Z,100645.90
2019-01-23T17:46:06.245Z,100650.42
2019-01-23T17:48:34.093Z,100650.02
2019-01-23T17:51:01.365Z,100656.17
2019-01-23T17:53:28.703Z,100661.88
2019-01-23T17:55:56.026Z,100663.65
2019-01-23T17:58:23.248Z,100660.25
2019-01-23T18:00:54.543Z,100664.48
2019-01-23T18:03:22.370Z,100667.22
2019-01-23T18:05:51.302Z,100663.87
2019-01-23T18:08:18.733Z,100666.02
2019-01-23T18:10:45.983Z,100667.96
2019-01-23T18:13:13.252Z,100675.10
2019-01-23T18:15:40.538Z,100673.85
2019-01-23T18:18:08.403Z,100675.38
2019-01-23T18:20:35.671Z,100684.72
2019-01-23T18:23:02.995Z,100682.91
2019-01-23T18:25:30.211Z,100690.03
2019-01-23T18:27:58.077Z,100689.41
2019-01-23T18:30:31.508Z,100691.45
2019-01-23T18:33:00.299Z,100692.80
2019-01-23T18:35:48.607Z,100688.11
2019-01-23T18:38:23.730Z,100687.13
2019-01-23T18:41:25.311Z,100688.37
2019-01-23T18:44:23.211Z,100697.19
2019-01-23T18:47:33.822Z,100696.27
2019-01-23T18:50:26.245Z,100693.48
2019-01-23T18:52:53.502Z,100694.88
2019-01-23T18:55:22.483Z,100693.33
2019-01-23T18:57:49.737Z,100690.91
2019-01-23T19:00:18.758Z,100698.76
2019-01-23T19:02:45.973Z,100695.83
2019-01-23T19:05:15.881Z,100703.69
2019-01-23T19:07:43.122Z,100700.17
2019-01-23T19:10:11.609Z,100700.04
2019-01-23T19:12:38.814Z,100702.72
2019-01-23T19:15:07.757Z,100708.28
2019-01-23T19:17:34.979Z,100706.59
2019-01-23T19:20:03.520Z,100706.59
2019-01-23T19:22:30.730Z,100710.45
2019-01-23T19:24:57.926Z,100709.69
2019-01-23T19:27:25.410Z,100702.80
2019-01-23T19:29:52.630Z,100710.77
2019-01-23T19:32:21.035Z,100710.13
2019-01-23T19:34:48.497Z,100711.74
2019-01-23T19:37:15.873Z,100719.22
2019-01-23T19:39:43.431Z,100718.34
2019-01-23T19:42:11.701Z,100726.54
2019-01-23T19:44:38.935Z,100727.78
2019-01-23T19:47:06.169Z,100731.09
2019-01-23T19:49:33.460Z,100734.20
2019-01-23T19:52:00.758Z,100732.37
2019-01-23T19:54:28.004Z,100740.00
2019-01-23T19:56:55.231Z,100745.09
2019-01-23T19:59:24.233Z,100744.78
2019-01-23T20:01:51.504Z,100752.68
2019-01-23T20:04:18.736Z,100748.72
2019-01-23T20:06:45.952Z,100747.69
2019-01-23T20:09:13.212Z,100748.95
2019-01-23T20:11:40.505Z,100750.14
2019-01-23T20:14:07.747Z,100747.48
2019-01-23T20:16:35.019Z,100752.59
2019-01-23T20:19:05.166Z,100751.42
2019-01-23T20:21:32.369Z,100750.81
2019-01-23T20:23:59.800Z,100755.80
2019-01-23T20:26:31.644Z,100753.35
2019-01-23T20:28:58.896Z,100752.42
2019-01-23T20:31:26.202Z,100767.50
2019-01-23T20:33:53.476Z,100770.36
2019-01-23T20:36:20.859Z,100770.13
2019-01-23T20:38:48.078Z,100770.25
2019-01-23T20:41:15.300Z,100771.54
2019-01-23T20:43:42.491Z,100777.38
2019-01-23T20:46:09.719Z,100777.78
2019-01-23T20:48:37.027Z,100776.32
2019-01-23T20:51:04.387Z,100777.63
2019-01-23T20:53:31.647Z,100784.39
2019-01-23T20:55:58.908Z,100782.40
2019-01-23T20:58:26.167Z,100780.10
2019-01-23T21:00:53.439Z,100787.22
2019-01-23T21:03:20.709Z,100791.61
2019-01-23T21:05:47.945Z,100788.73
2019-01-23T21:08:15.293Z,100793.00
2019-01-23T21:10:42.528Z,100789.31
2019-01-23T21:13:09.808Z,100796.48
2019-01-23T21:15:37.061Z,100790.66
2019-01-23T21:18:05.087Z,100790.08
2019-01-23T21:20:34.840Z,100797.13
2019-01-23T21:23:02.055Z,100799.84
2019-01-23T21:25:29.324Z,100796.48
2019-01-23T21:27:56.673Z,100801.75
2019-01-23T21:30:25.204Z,100798.01
2019-01-23T21:32:52.438Z,100802.77
2019-01-23T21:35:20.324Z,100806.08
2019-01-23T21:37:47.798Z,100806.28
2019-01-23T21:40:17.447Z,100804.34
2019-01-23T21:42:44.902Z,100814.36
2019-01-23T21:45:12.557Z,100818.77
2019-01-23T21:47:39.948Z,100815.55
2019-01-23T21:50:10.247Z,100814.80
2019-01-23T21:52:37.522Z,100819.13
2019-01-23T21:55:05.687Z,100813.66
2019-01-23T21:57:32.933Z,100820.47
2019-01-23T22:00:00.212Z,100824.42
2019-01-23T22:02:27.417Z,100827.08
2019-01-23T22:04:54.682Z,100833.67
2019-01-23T22:07:21.915Z,100832.47
2019-01-23T22:09:49.119Z,100835.72
2019-01-23T22:12:16.361Z,100838.86
2019-01-23T22:14:43.582Z,100849.16
2019-01-23T22:17:10.828Z,100850.92
2019-01-23T22:19:38.092Z,100854.48
2019-01-23T22:22:05.752Z,100858.42
2019-01-23T22:24:33.018Z,100852.89
2019-01-23T22:27:00.245Z,100854.77
2019-01-23T22:29:27.427Z,100850.00
2019-01-23T22:31:54.694Z,100849.23
2019-01-23T22:34:21.891Z,100859.61
2019-01-23T22:36:49.103Z,100867.79
2019-01-23T22:39:16.392Z,100868.44
2019-01-23T22:41:43.552Z,100873.69
2019-01-23T22:44:10.764Z,100883.80
2019-01-23T22:46:38.051Z,100880.33
2019-01-23T22:49:05.229Z,100884.55
2019-01-23T22:51:32.481Z,100891.92
2019-01-23T22:53:59.698Z,100900.80
2019-01-23T22:56:26.918Z,100901.95
2019-01-23T22:58:54.158Z,100907.86
2019-01-23T23:01:27.163Z,100906.45
2019-01-23T23:03:54.524Z,100906.98
2019-01-23T23:06:22.418Z,100909.68
2019-01-23T23:08:50.607Z,100916.97
2019-01-23T23:11:17.904Z,100927.41
2019-01-23T23:13:45.151Z,100918.19
2019-01-23T23:16:12.372Z,100925.47
2019-01-23T23:18:39.644Z,100923.58
2019-01-23T23:21:06.867Z,100936.00
2019-01-23T23:23:34.083Z,100942.00
2019-01-23T23:26:01.339Z,100942.27
2019-01-23T23:28:28.537Z,100939.22
2019-01-23T23:30:55.835Z,100938.32
2019-01-23T23:33:23.073Z,100943.98
2019-01-23T23:35:50.272Z,100946.84
2019-01-23T23:38:17.526Z,100941.94
2019-01-23T23:40:44.944Z,100944.91
2019-01-23T23:43:12.186Z,100945.90
2019-01-23T23:45:39.424Z,100962.28
2019-01-23T23:48:06.732Z,100951.55
2019-01-23T23:50:36.418Z,100959.41
2019-01-23T23:53:03.935Z,100961.45
2019-01-23T23:55:31.573Z,100959.75
2019-01-23T23:57:58.803Z,100952.64
